createdAt,value
2018-01-04T00:00:45.460Z,19.46
2018-01-04T00:05:45.665Z,19.42
2018-01-04T00:10:45.589Z,19.27
2018-01-04T00:15:45.511Z,19.25
2018-01-04T00:20:45.478Z,19.24
2018-01-04T00:25:45.385Z,19.16
2018-01-04T00:30:45.323Z,19.09
2018-01-04T00:35:45.252Z,19
2018-01-04T00:40:45.191Z,18.91
2018-01-04T00:45:45.119Z,18.89
2018-01-04T00:50:45.149Z,18.86
2018-01-04T00:55:44.975Z,18.84
2018-01-04T01:00:44.906Z,18.86
2018-01-04T01:05:44.834Z,18.84
2018-01-04T01:10:44.928Z,18.74
2018-01-04T01:15:44.770Z,18.72
2018-01-04T01:20:44.702Z,18.63
2018-01-04T01:25:44.635Z,18.68
2018-01-04T01:30:44.479Z,18.61
2018-01-04T01:35:44.421Z,18.59
2018-01-04T01:40:44.340Z,18.47
2018-01-04T01:45:44.298Z,18.44
2018-01-04T01:50:44.218Z,18.49
2018-01-04T01:55:44.175Z,18.42
2018-01-04T02:00:44.067Z,18.49
2018-01-04T02:05:43.979Z,18.42
2018-01-04T02:10:43.651Z,18.26
2018-01-04T02:15:43.885Z,18.27
2018-01-04T02:20:43.765Z,18.32
2018-01-04T02:25:43.682Z,18.27
2018-01-04T02:30:43.612Z,18.21
2018-01-04T02:35:43.538Z,18.21
2018-01-04T02:40:43.464Z,18.24
2018-01-04T02:45:43.135Z,18.26
2018-01-04T02:50:43.350Z,18.2
2018-01-04T02:55:43.237Z,18.23
2018-01-04T03:00:43.270Z,18.21
2018-01-04T03:05:43.094Z,18.23
2018-01-04T03:10:43.012Z,18.24
2018-01-04T03:15:42.942Z,18.23
2018-01-04T03:20:42.895Z,18.19
2018-01-04T03:25:42.792Z,18.13
2018-01-04T03:30:42.733Z,18.14
2018-01-04T03:35:42.640Z,18.08
2018-01-04T03:40:42.562Z,18.13
2018-01-04T03:45:42.496Z,18.05
2018-01-04T03:50:42.443Z,18.06
2018-01-04T03:55:42.335Z,18.02
2018-01-04T04:00:42.243Z,17.99
2018-01-04T04:05:42.177Z,17.9
2018-01-04T04:10:42.091Z,17.92
2018-01-04T04:15:42.071Z,17.92
2018-01-04T04:20:41.935Z,17.88
2018-01-04T04:25:41.887Z,17.92
2018-01-04T04:30:41.780Z,17.86
2018-01-04T04:35:41.709Z,17.81
2018-01-04T04:40:41.627Z,17.88
2018-01-04T04:45:41.585Z,17.86
2018-01-04T04:50:41.277Z,17.79
2018-01-04T04:55:41.401Z,17.79
2018-01-04T05:00:41.314Z,17.79
2018-01-04T05:05:41.237Z,17.87
2018-01-04T05:10:41.166Z,17.76
2018-01-04T05:15:41.093Z,17.76
2018-01-04T05:20:41.017Z,17.76
2018-01-04T05:25:40.953Z,17.68
2018-01-04T05:30:40.849Z,17.66
2018-01-04T05:35:40.777Z,17.68
2018-01-04T05:40:40.707Z,17.68
2018-01-04T05:45:40.617Z,17.66
2018-01-04T05:50:40.595Z,17.68
2018-01-04T05:55:40.489Z,17.63
2018-01-04T06:00:40.382Z,17.68
2018-01-04T06:05:40.318Z,17.6
2018-01-04T06:10:39.994Z,17.57
2018-01-04T06:15:40.222Z,17.55
2018-01-04T06:20:40.079Z,17.58
2018-01-04T06:25:40.005Z,17.5
2018-01-04T06:30:39.907Z,17.65
2018-01-04T06:35:39.852Z,17.5
2018-01-04T06:40:39.764Z,17.58
2018-01-04T06:45:39.685Z,17.55
2018-01-04T06:50:39.650Z,17.52
2018-01-04T06:55:39.586Z,17.68
2018-01-04T07:00:39.451Z,17.66
2018-01-04T07:05:39.374Z,17.86
2018-01-04T07:10:39.312Z,18.11
2018-01-04T07:15:39.246Z,18.34
2018-01-04T07:20:39.168Z,18.44
2018-01-04T07:25:39.188Z,18.5
2018-01-04T07:30:39.008Z,18.71
2018-01-04T07:35:38.991Z,18.72
2018-01-04T07:40:38.934Z,18.78
2018-01-04T07:45:38.814Z,18.81
2018-01-04T07:50:38.772Z,18.82
2018-01-04T07:55:38.658Z,18.78
2018-01-04T08:00:38.618Z,18.79
2018-01-04T08:05:38.512Z,18.76
2018-01-04T08:10:38.456Z,18.79
2018-01-04T08:15:38.413Z,18.69
2018-01-04T08:20:38.322Z,18.76
2018-01-04T08:25:38.236Z,18.76
2018-01-04T08:30:37.905Z,18.82
2018-01-04T08:35:38.084Z,18.86
2018-01-04T08:40:38.024Z,18.89
2018-01-04T08:45:37.951Z,18.87
2018-01-04T08:50:37.890Z,18.84
2018-01-04T08:55:37.813Z,18.81
2018-01-04T09:00:37.764Z,18.78
2018-01-04T09:05:37.403Z,18.74
2018-01-04T09:10:37.590Z,18.78
2018-01-04T09:15:37.529Z,18.76
2018-01-04T09:20:37.527Z,18.76
2018-01-04T09:25:37.387Z,18.89
2018-01-04T09:30:37.374Z,18.81
2018-01-04T09:35:37.302Z,18.87
2018-01-04T09:40:37.171Z,18.87
2018-01-04T09:45:36.831Z,18.91
2018-01-04T09:50:37.069Z,18.84
2018-01-04T09:55:36.954Z,18.84
2018-01-04T10:00:36.912Z,18.82
2018-01-04T10:05:36.824Z,18.89
2018-01-04T10:10:36.755Z,18.82
2018-01-04T10:15:36.670Z,18.87
2018-01-04T10:20:36.598Z,18.78
2018-01-04T10:25:36.533Z,18.82
2018-01-04T10:30:36.465Z,18.81
2018-01-04T10:35:36.375Z,18.87
2018-01-04T10:40:36.311Z,18.9
2018-01-04T10:45:36.239Z,18.87
2018-01-04T10:50:36.179Z,18.86
2018-01-04T10:55:36.084Z,18.81
2018-01-04T11:00:36.023Z,18.82
2018-01-04T11:05:35.943Z,18.78
2018-01-04T11:10:35.871Z,18.84
2018-01-04T11:15:35.809Z,18.81
2018-01-04T11:20:35.737Z,18.99
2018-01-04T11:25:35.659Z,18.91
2018-01-04T11:30:35.645Z,18.99
2018-01-04T11:35:35.527Z,18.96
2018-01-04T11:40:35.467Z,18.89
2018-01-04T11:45:35.379Z,18.86
2018-01-04T11:50:35.313Z,18.87
2018-01-04T11:55:35.274Z,18.89
2018-01-04T12:00:35.246Z,18.89
2018-01-04T12:05:35.203Z,18.82
2018-01-04T12:10:35.031Z,18.84
2018-01-04T12:15:34.956Z,18.86
2018-01-04T12:20:34.896Z,18.75
2018-01-04T12:25:34.865Z,18.78
2018-01-04T12:30:34.765Z,18.75
2018-01-04T12:35:34.735Z,18.66
2018-01-04T12:40:34.619Z,18.68
2018-01-04T12:45:34.543Z,18.72
2018-01-04T12:50:34.476Z,18.9
2018-01-04T12:55:34.395Z,18.97
2018-01-04T13:00:34.323Z,18.97
2018-01-04T13:05:34.261Z,18.97
2018-01-04T13:10:34.179Z,19
2018-01-04T13:15:34.120Z,18.99
2018-01-04T13:20:33.780Z,18.86
2018-01-04T13:25:33.975Z,18.87
2018-01-04T13:30:33.902Z,18.84
2018-01-04T13:35:33.838Z,18.86
2018-01-04T13:40:33.749Z,18.81
2018-01-04T13:45:33.697Z,18.71
2018-01-04T13:50:33.619Z,18.56
2018-01-04T13:55:33.537Z,18.63
2018-01-04T14:00:33.491Z,18.74
2018-01-04T14:05:33.450Z,18.84
2018-01-04T14:10:33.330Z,18.97
2018-01-04T14:15:33.356Z,18.96
2018-01-04T14:20:33.393Z,19
2018-01-04T14:25:33.114Z,19.02
2018-01-04T14:30:33.048Z,19
2018-01-04T14:35:33.094Z,19.13
2018-01-04T14:40:32.992Z,18.96
2018-01-04T14:45:32.856Z,18.93
2018-01-04T14:50:32.867Z,18.94
2018-01-04T14:55:32.684Z,18.81
2018-01-04T15:00:32.648Z,18.84
2018-01-04T15:05:32.560Z,18.84
2018-01-04T15:10:32.589Z,18.79
2018-01-04T15:15:32.158Z,18.72
2018-01-04T15:20:32.364Z,18.66
2018-01-04T15:25:32.271Z,18.78
2018-01-04T15:30:32.197Z,18.89
2018-01-04T15:35:32.142Z,18.94
2018-01-04T15:40:32.068Z,18.94
2018-01-04T15:45:31.992Z,19.02
2018-01-04T15:50:31.933Z,18.96
2018-01-04T15:55:31.957Z,19
2018-01-04T16:00:31.539Z,18.87
2018-01-04T16:05:31.715Z,18.9
2018-01-04T16:10:31.435Z,18.96
2018-01-04T16:15:31.598Z,19.07
2018-01-04T16:20:31.518Z,19.24
2018-01-04T16:25:31.516Z,19.28
2018-01-04T16:30:31.662Z,19.46
2018-01-04T16:35:31.323Z,19.71
2018-01-04T16:40:31.248Z,19.9
2018-01-04T16:45:31.214Z,20.2
2018-01-04T16:50:31.136Z,20.07
2018-01-04T16:55:31.074Z,20.16
2018-01-04T17:00:31.104Z,20.16
2018-01-04T17:05:30.937Z,20.23
2018-01-04T17:10:30.869Z,20.35
2018-01-04T17:15:30.553Z,20.32
2018-01-04T17:20:30.775Z,20.3
2018-01-04T17:25:30.675Z,20.26
2018-01-04T17:30:30.632Z,20.25
2018-01-04T17:35:30.568Z,20.19
2018-01-04T17:40:30.501Z,20.25
2018-01-04T17:45:30.441Z,20.34
2018-01-04T17:50:30.389Z,20.35
2018-01-04T17:55:30.309Z,20.44
2018-01-04T18:00:30.254Z,20.35
2018-01-04T18:05:29.931Z,20.32
2018-01-04T18:10:30.193Z,20.26
2018-01-04T18:15:30.170Z,20.25
2018-01-04T18:20:30.019Z,20.23
2018-01-04T18:25:29.947Z,20.26
2018-01-04T18:30:29.880Z,20.32
2018-01-04T18:35:29.821Z,20.27
2018-01-04T18:40:29.781Z,20.35
2018-01-04T18:45:29.727Z,20.32
2018-01-04T18:50:29.733Z,20.27
2018-01-04T18:55:29.589Z,20.18
2018-01-04T19:00:29.495Z,20.18
2018-01-04T19:05:29.436Z,20.08
2018-01-04T19:10:29.403Z,20.12
2018-01-04T19:15:29.461Z,20.11
2018-01-04T19:20:29.303Z,20.11
2018-01-04T19:25:29.369Z,20.19
2018-01-04T19:30:29.165Z,20.2
2018-01-04T19:35:29.006Z,20.23
2018-01-04T19:40:29.172Z,20.16
2018-01-04T19:45:29.364Z,20.2
2018-01-04T19:50:29.039Z,20.23
2018-01-04T19:55:29.012Z,20.16
2018-01-04T20:00:29.147Z,20.18
2018-01-04T20:05:28.701Z,20.16
2018-01-04T20:10:28.642Z,20.25
2018-01-04T20:15:28.713Z,20.27
2018-01-04T20:20:28.556Z,20.23
2018-01-04T20:25:28.626Z,20.19
2018-01-04T20:30:28.556Z,20.18
2018-01-04T20:35:28.348Z,20.22
2018-01-04T20:40:28.351Z,20.18
2018-01-04T20:45:28.470Z,20.1
2018-01-04T20:50:28.273Z,20.11
2018-01-04T20:55:28.199Z,20.19
2018-01-04T21:00:28.140Z,20.26
2018-01-04T21:05:27.975Z,20.23
2018-01-04T21:10:27.991Z,20.25
2018-01-04T21:15:27.907Z,20.22
2018-01-04T21:20:27.866Z,20.12
2018-01-04T21:25:27.961Z,20.18
2018-01-04T21:30:27.766Z,20.16
2018-01-04T21:35:27.816Z,20.2
2018-01-04T21:40:27.587Z,20.27
2018-01-04T21:45:27.689Z,20.26
2018-01-04T21:50:27.681Z,20.38
2018-01-04T21:55:27.335Z,20.4
2018-01-04T22:00:27.505Z,20.27
2018-01-04T22:05:27.165Z,20.32
2018-01-04T22:10:27.132Z,20.29
2018-01-04T22:15:26.840Z,20.29
2018-01-04T22:20:27.019Z,20.26
2018-01-04T22:25:26.935Z,20.2
2018-01-04T22:30:26.867Z,20.11
2018-01-04T22:35:26.824Z,20.2
2018-01-04T22:40:26.752Z,20.18
2018-01-04T22:45:26.745Z,20.32
2018-01-04T22:50:26.358Z,20.48
2018-01-04T22:55:26.573Z,20.51
2018-01-04T23:00:26.507Z,20.54
2018-01-04T23:05:26.455Z,20.53
2018-01-04T23:10:26.373Z,20.44
2018-01-04T23:15:26.323Z,20.48
2018-01-04T23:20:26.015Z,20.37
2018-01-04T23:25:26.187Z,20.4
2018-01-04T23:30:26.123Z,20.32
2018-01-04T23:35:26.075Z,20.35
2018-01-04T23:40:25.851Z,20.29
2018-01-04T23:45:25.689Z,20.22
2018-01-04T23:50:25.880Z,20.19
2018-01-04T23:55:25.824Z,19.86
